createdAt,value
2022-11-04T00:01:14.141Z,10.30
2022-11-04T00:06:19.500Z,10.20
2022-11-04T00:11:44.631Z,10.30
2022-11-04T00:17:08.479Z,10.20
2022-11-04T00:22:30.991Z,10.40
2022-11-04T00:27:53.452Z,10.60
2022-11-04T00:33:16.108Z,10.70
2022-11-04T00:38:22.809Z,10.70
2022-11-04T00:43:27.761Z,10.80
2022-11-04T00:48:33.336Z,10.50
2022-11-04T00:53:38.389Z,10.30
2022-11-04T00:58:43.462Z,10.40
2022-11-04T01:03:51.728Z,10.10
2022-11-04T01:09:03.591Z,10.40
2022-11-04T01:14:08.817Z,10.60
2022-11-04T01:19:15.308Z,10.30
2022-11-04T01:24:20.950Z,10.30
2022-11-04T01:29:26.524Z,10.40
2022-11-04T01:34:31.434Z,10.20
2022-11-04T01:39:36.756Z,10.10
2022-11-04T01:44:50.627Z,10.10
2022-11-04T01:50:13.844Z,10.00
2022-11-04T01:55:21.815Z,9.90
2022-11-04T02:00:26.980Z,10.00
2022-11-04T02:05:33.218Z,10.20
2022-11-04T02:10:39.832Z,10.00
2022-11-04T02:15:50.949Z,10.10
2022-11-04T02:21:02.248Z,10.00
2022-11-04T02:26:28.529Z,9.90
2022-11-04T02:31:42.918Z,9.90
2022-11-04T02:37:06.713Z,10.00
2022-11-04T02:42:30.038Z,10.10
2022-11-04T02:47:38.340Z,10.00
2022-11-04T02:52:51.412Z,10.00
2022-11-04T02:58:00.101Z,9.90
2022-11-04T03:03:09.689Z,10.10
2022-11-04T03:08:21.110Z,9.80
2022-11-04T03:13:41.771Z,9.60
2022-11-04T03:19:02.029Z,9.60
2022-11-04T03:24:07.972Z,9.70
2022-11-04T03:29:19.593Z,9.90
2022-11-04T03:34:26.015Z,9.80
2022-11-04T03:39:31.534Z,9.80
2022-11-04T03:44:36.657Z,9.80
2022-11-04T03:49:41.647Z,9.80
2022-11-04T03:54:47.898Z,9.40
2022-11-04T04:00:14.407Z,9.70
2022-11-04T04:05:34.524Z,9.90
2022-11-04T04:10:57.456Z,9.90
2022-11-04T04:16:19.296Z,10.00
2022-11-04T04:21:30.749Z,10.20
2022-11-04T04:26:56.237Z,10.30
2022-11-04T04:32:03.388Z,10.40
2022-11-04T04:37:14.489Z,10.30
2022-11-04T04:42:38.444Z,10.40
2022-11-04T04:47:47.159Z,10.40
2022-11-04T04:52:54.607Z,10.30
2022-11-04T04:58:00.296Z,10.30
2022-11-04T05:03:05.249Z,10.30
2022-11-04T05:08:11.055Z,10.30
2022-11-04T05:13:30.343Z,10.40
2022-11-04T05:18:36.083Z,10.00
2022-11-04T05:23:41.061Z,9.60
2022-11-04T05:28:45.939Z,9.40
2022-11-04T05:33:51.306Z,9.70
2022-11-04T05:38:56.317Z,9.80
2022-11-04T05:44:04.267Z,10.00
2022-11-04T05:49:11.344Z,10.30
2022-11-04T05:54:16.452Z,10.00
2022-11-04T05:59:22.586Z,10.00
2022-11-04T06:04:27.466Z,10.00
2022-11-04T06:09:41.451Z,9.70
2022-11-04T06:15:00.308Z,9.10
2022-11-04T06:20:07.224Z,9.40
2022-11-04T06:25:11.298Z,9.50
2022-11-04T06:30:16.304Z,9.60
2022-11-04T06:35:21.480Z,9.50
2022-11-04T06:40:27.117Z,9.50
2022-11-04T06:45:31.985Z,9.40
2022-11-04T06:50:38.229Z,9.00
2022-11-04T06:55:43.792Z,9.20
2022-11-04T07:00:53.458Z,9.40
2022-11-04T07:05:58.592Z,9.50
2022-11-04T07:11:04.297Z,9.60
2022-11-04T07:16:10.597Z,9.60
2022-11-04T07:21:16.318Z,9.60
2022-11-04T07:26:22.720Z,9.80
2022-11-04T07:31:27.639Z,9.90
2022-11-04T07:36:33.320Z,9.90
2022-11-04T07:41:38.573Z,10.00
2022-11-04T07:46:44.093Z,10.20
2022-11-04T07:51:49.141Z,10.20
2022-11-04T07:56:54.592Z,10.30
2022-11-04T08:02:00.361Z,10.40
2022-11-04T08:07:07.685Z,10.50
2022-11-04T08:12:13.345Z,10.60
2022-11-04T08:17:19.255Z,10.60
2022-11-04T08:22:27.545Z,10.80
2022-11-04T08:27:31.028Z,11.00
2022-11-04T08:32:36.806Z,11.30
2022-11-04T08:37:42.137Z,11.80
2022-11-04T08:42:47.916Z,12.10
2022-11-04T08:47:53.403Z,12.50
2022-11-04T08:52:58.920Z,12.90
2022-11-04T08:58:05.046Z,13.20
2022-11-04T09:03:10.809Z,13.80
2022-11-04T09:08:18.847Z,13.50
2022-11-04T09:13:24.249Z,13.60
2022-11-04T09:18:30.732Z,13.90
2022-11-04T09:23:34.938Z,14.50
2022-11-04T09:28:40.583Z,14.30
2022-11-04T09:33:46.459Z,13.60
2022-11-04T09:38:51.998Z,13.90
2022-11-04T09:44:02.861Z,13.60
2022-11-04T09:49:10.891Z,13.50
2022-11-04T09:54:47.101Z,13.20
2022-11-04T09:59:50.859Z,13.10
2022-11-04T10:05:20.031Z,13.20
2022-11-04T10:10:28.021Z,13.10
2022-11-04T10:15:42.334Z,13.60
2022-11-04T10:21:08.862Z,13.50
2022-11-04T10:26:19.591Z,13.50
2022-11-04T10:31:25.950Z,13.30
2022-11-04T10:36:32.159Z,13.40
2022-11-04T10:41:40.238Z,13.50
2022-11-04T10:47:10.897Z,13.60
2022-11-04T10:52:20.668Z,13.60
2022-11-04T10:57:25.790Z,13.70
2022-11-04T11:02:40.089Z,13.40
2022-11-04T11:07:48.531Z,13.50
2022-11-04T11:13:11.813Z,13.60
2022-11-04T11:18:20.988Z,13.40
2022-11-04T11:23:44.086Z,13.20
2022-11-04T11:28:59.038Z,12.90
2022-11-04T11:34:06.704Z,13.10
2022-11-04T11:39:17.719Z,13.20
2022-11-04T11:44:37.606Z,13.10
2022-11-04T11:49:42.751Z,13.10
2022-11-04T11:54:50.879Z,12.90
2022-11-04T12:10:49.918Z,12.80
2022-11-04T12:15:48.117Z,12.80
2022-11-04T12:21:24.654Z,12.70
2022-11-04T12:26:44.791Z,12.70
2022-11-04T12:31:52.726Z,12.70
2022-11-04T12:37:22.063Z,12.50
2022-11-04T12:42:49.479Z,12.50
2022-11-04T12:48:02.829Z,12.50
2022-11-04T12:53:31.611Z,12.40
2022-11-04T12:58:46.053Z,12.30
2022-11-04T13:04:15.327Z,12.20
2022-11-04T13:09:23.565Z,12.20
2022-11-04T13:14:32.042Z,12.10
2022-11-04T13:19:48.650Z,11.90
2022-11-04T13:24:59.955Z,11.90
2022-11-04T13:30:26.279Z,11.80
2022-11-04T13:36:02.451Z,11.70
2022-11-04T13:41:12.837Z,11.70
2022-11-04T13:46:23.809Z,11.80
2022-11-04T13:51:46.999Z,11.80
2022-11-04T13:56:52.331Z,11.80
2022-11-04T14:02:22.382Z,11.80
2022-11-04T14:07:30.764Z,11.70
2022-11-04T14:12:37.340Z,11.50
2022-11-04T14:17:45.323Z,11.40
2022-11-04T14:22:56.249Z,11.40
2022-11-04T14:28:19.483Z,11.20
2022-11-04T14:33:42.748Z,11.10
2022-11-04T14:39:03.500Z,10.90
2022-11-04T14:44:16.743Z,11.00
2022-11-04T14:49:40.330Z,11.10
2022-11-04T14:54:46.580Z,10.90
2022-11-04T14:59:53.191Z,10.80
2022-11-04T15:05:02.488Z,10.80
2022-11-04T15:10:22.553Z,10.70
2022-11-04T15:15:34.852Z,10.70
2022-11-04T15:20:43.168Z,10.70
2022-11-04T15:25:50.406Z,10.80
2022-11-04T15:31:07.876Z,10.80
2022-11-04T15:36:21.890Z,10.80
2022-11-04T15:41:47.588Z,10.80
2022-11-04T15:46:55.990Z,10.80
2022-11-04T15:52:04.357Z,10.80
2022-11-04T15:57:27.711Z,10.80
2022-11-04T16:02:34.987Z,10.80
2022-11-04T16:07:42.660Z,10.90
2022-11-04T16:12:47.837Z,10.90
2022-11-04T16:17:53.041Z,10.90
2022-11-04T16:23:00.881Z,10.90
2022-11-04T16:28:05.863Z,10.80
2022-11-04T16:33:14.154Z,10.80
2022-11-04T16:38:19.593Z,10.80
2022-11-04T16:43:25.621Z,10.70
2022-11-04T16:48:30.531Z,10.60
2022-11-04T16:53:36.203Z,10.70
2022-11-04T16:58:41.363Z,10.70
2022-11-04T17:03:46.943Z,10.60
2022-11-04T17:08:53.694Z,10.60
2022-11-04T17:13:59.033Z,10.60
2022-11-04T17:19:04.101Z,10.50
2022-11-04T17:24:10.324Z,10.50
2022-11-04T17:29:17.484Z,10.50
2022-11-04T17:34:25.194Z,10.50
2022-11-04T17:39:30.136Z,10.50
2022-11-04T17:44:35.380Z,10.30
2022-11-04T17:49:41.438Z,10.30
2022-11-04T17:54:47.242Z,10.30
2022-11-04T17:59:53.232Z,10.20
2022-11-04T18:04:59.519Z,10.20
2022-11-04T18:10:05.638Z,10.20
2022-11-04T18:15:13.603Z,10.10
2022-11-04T18:20:19.167Z,10.10
2022-11-04T18:25:24.721Z,9.90
2022-11-04T18:30:29.977Z,9.40
2022-11-04T18:35:36.469Z,9.20
2022-11-04T18:40:41.572Z,9.00
2022-11-04T18:45:46.537Z,8.80
2022-11-04T18:50:51.598Z,8.70
2022-11-04T18:55:58.968Z,8.60
2022-11-04T19:01:11.058Z,8.60
2022-11-04T19:06:19.342Z,8.60
2022-11-04T19:11:30.558Z,8.50
2022-11-04T19:16:36.459Z,8.40
2022-11-04T19:21:41.387Z,8.40
2022-11-04T19:26:47.422Z,8.40
2022-11-04T19:31:52.500Z,8.40
2022-11-04T19:36:57.460Z,8.30
2022-11-04T19:42:21.164Z,8.40
2022-11-04T19:47:26.327Z,8.30
2022-11-04T19:52:32.411Z,8.30
2022-11-04T19:57:39.346Z,8.20
2022-11-04T20:02:44.718Z,8.20
2022-11-04T20:07:52.040Z,8.20
2022-11-04T20:13:15.430Z,8.20
2022-11-04T20:18:21.245Z,8.10
2022-11-04T20:23:26.446Z,8.10
2022-11-04T20:28:32.541Z,8.10
2022-11-04T20:33:38.961Z,8.10
2022-11-04T20:38:46.495Z,8.00
2022-11-04T20:43:56.175Z,8.00
2022-11-04T20:49:04.238Z,8.00
2022-11-04T20:54:11.079Z,7.90
2022-11-04T20:59:18.465Z,7.90
2022-11-04T21:04:25.034Z,7.90
2022-11-04T21:09:30.144Z,7.90
2022-11-04T21:14:36.481Z,7.90
2022-11-04T21:19:42.193Z,7.90
2022-11-04T21:24:48.304Z,7.90
2022-11-04T21:29:54.213Z,7.90
2022-11-04T21:34:59.331Z,7.90
2022-11-04T21:40:04.999Z,7.80
2022-11-04T21:45:11.786Z,7.80
2022-11-04T21:50:18.332Z,7.70
2022-11-04T21:55:24.906Z,7.70
2022-11-04T22:00:31.012Z,7.70
2022-11-04T22:05:37.378Z,7.60
2022-11-04T22:10:42.786Z,7.60
2022-11-04T22:15:59.669Z,7.60
2022-11-04T22:21:07.511Z,7.60
2022-11-04T22:26:18.851Z,7.50
2022-11-04T22:31:29.527Z,7.60
2022-11-04T22:36:35.072Z,7.50
2022-11-04T22:41:40.293Z,7.50
2022-11-04T22:46:45.456Z,7.50
2022-11-04T22:51:50.998Z,7.40
2022-11-04T22:56:56.023Z,7.40
2022-11-04T23:02:01.497Z,7.30
2022-11-04T23:07:06.652Z,7.30
2022-11-04T23:12:29.578Z,7.20
2022-11-04T23:17:52.588Z,7.20
2022-11-04T23:23:15.785Z,7.10
2022-11-04T23:28:39.169Z,7.00
2022-11-04T23:34:02.705Z,6.90
2022-11-04T23:39:08.220Z,6.90
2022-11-04T23:44:15.220Z,6.90
2022-11-04T23:49:38.209Z,6.90
2022-11-04T23:55:01.436Z,6.90
